Al Kharsaah — C6VG3 — position and weather

sailwx.info

Track history (hours):
 
Tides and Currents Weather Stations Pressure Air Temp Water Temp Dewpoint Dewpoint Depression Visibility Wind Speed Wind Dir Waves Ship Positions

Al Kharsaah

Last reported at 2015-May-22 12:30 UTC. Time now 2015-May-22 19:10 UTC.
Position N 36°22' W 002°57'.

Length 315 m; draft 12.1 m.

Type: Ship (hazmat cat D). MMSI: 309333000.

Date/timePositionNaut miles runAvg speedWind from/ knotsBaromVisibWave heightAir tempDewpointWater temp
2015-May-22 12:30N 36°22' W 002°57'1717.6
2015-May-22 11:33N 36°24' W 002°37'1917.8
2015-May-22 10:31N 36°26' W 002°14'1917.4
2015-May-22 09:25N 36°32' W 001°51'54917.2
2015-May-21 01:31N 37°44' E 009°32'9415.6
2015-May-20 19:29N 37°19' E 011°26'1616.3
2015-May-20 18:32N 37°12' E 011°43'1716.7
2015-May-20 17:30N 37°07' E 012°04'1516.5
2015-May-20 16:33N 37°02' E 012°23'1616.3
2015-May-20 15:34N 36°57' E 012°42'1716.6
2015-May-20 14:33N 36°53' E 013°02'1716.6
2015-May-20 13:33N 36°47' E 013°22'1616.4
2015-May-20 12:33N 36°41' E 013°41'1716.5
2015-May-20 11:33N 36°36' E 014°00'1716.7
2015-May-20 10:33N 36°30' E 014°20'1616.3
2015-May-20 09:33N 36°25' E 014°39'1616.2
2015-May-20 08:33N 36°19' E 014°58'1616.2
2015-May-20 07:33N 36°14' E 015°17'1717.2
2015-May-20 06:33N 36°11' E 015°38'1717.1
2015-May-20 05:33N 36°06' E 015°58'3517.1
2015-May-20 03:29N 35°58' E 016°41'64116.9
2015-May-18 13:33N 32°46' E 029°01'1716.9
2015-May-18 12:33N 32°40' E 029°20'1716.9
2015-May-18 11:33N 32°34' E 029°39'1717.0
2015-May-18 10:32N 32°27' E 029°58'3717.2
2015-May-18 08:23N 32°14' E 030°38'6817.5
2015-May-18 04:28N 31°47' E 031°53'1516.4
2015-May-18 03:32N 31°38' E 032°07'1616.5
2015-May-18 02:33N 31°29' E 032°23'4210.4
2015-May-17 22:33N 30°48' E 032°19'12 9.2
2015-May-17 21:11N 30°35' E 032°19'70 4.5
2015-May-17 05:33N 29°27' E 032°38'  
Track history (hours):
 
Tides and Currents Weather Stations Pressure Air Temp Water Temp Dewpoint Dewpoint Depression Visibility Wind Speed Wind Dir Waves Ship Positions

Al Kharsaah

Last reported at 2015-May-22 12:30 UTC. Time now 2015-May-22 19:10 UTC.
Position N 36°22' W 002°57'.

Length 315 m; draft 12.1 m.

Type: Ship (hazmat cat D). MMSI: 309333000.

Date/timePositionNaut miles runAvg speedWind from/ knotsBaromVisibWave heightAir tempDewpointWater temp
2015-May-22 12:30N 36°22' W 002°57'1717.6
2015-May-22 11:33N 36°24' W 002°37'1917.8
2015-May-22 10:31N 36°26' W 002°14'1917.4
2015-May-22 09:25N 36°32' W 001°51'54917.2
2015-May-21 01:31N 37°44' E 009°32'9415.6
2015-May-20 19:29N 37°19' E 011°26'1616.3
2015-May-20 18:32N 37°12' E 011°43'1716.7
2015-May-20 17:30N 37°07' E 012°04'1516.5
2015-May-20 16:33N 37°02' E 012°23'1616.3
2015-May-20 15:34N 36°57' E 012°42'1716.6
2015-May-20 14:33N 36°53' E 013°02'1716.6
2015-May-20 13:33N 36°47' E 013°22'1616.4
2015-May-20 12:33N 36°41' E 013°41'1716.5
2015-May-20 11:33N 36°36' E 014°00'1716.7
2015-May-20 10:33N 36°30' E 014°20'1616.3
2015-May-20 09:33N 36°25' E 014°39'1616.2
2015-May-20 08:33N 36°19' E 014°58'1616.2
2015-May-20 07:33N 36°14' E 015°17'1717.2
2015-May-20 06:33N 36°11' E 015°38'1717.1
2015-May-20 05:33N 36°06' E 015°58'3517.1
2015-May-20 03:29N 35°58' E 016°41'64116.9
2015-May-18 13:33N 32°46' E 029°01'1716.9
2015-May-18 12:33N 32°40' E 029°20'1716.9
2015-May-18 11:33N 32°34' E 029°39'1717.0
2015-May-18 10:32N 32°27' E 029°58'3717.2
2015-May-18 08:23N 32°14' E 030°38'6817.5
2015-May-18 04:28N 31°47' E 031°53'1516.4
2015-May-18 03:32N 31°38' E 032°07'1616.5
2015-May-18 02:33N 31°29' E 032°23'4210.4
2015-May-17 22:33N 30°48' E 032°19'12 9.2
2015-May-17 21:11N 30°35' E 032°19'70 4.5
2015-May-17 05:33N 29°27' E 032°38'  

Dump ship's entire track history